createdAt,value
2018-08-23T00:01:18.405Z,9.07
2018-08-23T00:03:28.016Z,9.00
2018-08-23T00:05:31.800Z,8.77
2018-08-23T00:07:35.411Z,9.27
2018-08-23T00:09:38.944Z,9.27
2018-08-23T00:11:47.428Z,9.23
2018-08-23T00:13:50.937Z,9.00
2018-08-23T00:15:54.469Z,7.80
2018-08-23T00:17:58.011Z,7.70
2018-08-23T00:20:02.732Z,8.67
2018-08-23T00:22:06.788Z,8.60
2018-08-23T00:24:12.051Z,8.80
2018-08-23T00:26:16.730Z,9.03
2018-08-23T00:28:20.276Z,9.07
2018-08-23T00:30:27.720Z,8.53
2018-08-23T00:32:31.251Z,7.83
2018-08-23T00:34:36.666Z,9.00
2018-08-23T00:36:40.193Z,8.83
2018-08-23T00:38:43.741Z,8.90
2018-08-23T00:40:47.235Z,9.07
2018-08-23T00:42:56.197Z,8.90
2018-08-23T00:45:01.424Z,8.60
2018-08-23T00:47:05.015Z,9.33
2018-08-23T00:49:08.671Z,8.83
2018-08-23T00:51:12.180Z,9.10
2018-08-23T00:53:16.183Z,9.20
2018-08-23T00:55:25.395Z,8.30
2018-08-23T00:57:28.920Z,9.50
2018-08-23T00:59:32.459Z,9.20
2018-08-23T01:01:36.000Z,9.10
2018-08-23T01:03:39.566Z,9.20
2018-08-23T01:05:43.146Z,9.17
2018-08-23T01:07:46.643Z,9.83
2018-08-23T01:09:50.153Z,9.00
2018-08-23T01:11:54.027Z,8.70
2018-08-23T01:13:57.548Z,9.03
2018-08-23T01:16:01.088Z,8.17
2018-08-23T01:18:14.380Z,9.07
2018-08-23T01:20:17.858Z,9.97
2018-08-23T01:22:21.427Z,9.90
2018-08-23T01:24:29.842Z,8.93
2018-08-23T01:26:34.708Z,9.73
2018-08-23T01:28:38.252Z,9.27
2018-08-23T01:30:42.184Z,10.17
2018-08-23T01:32:45.694Z,9.30
2018-08-23T01:34:49.185Z,9.43
2018-08-23T01:36:52.743Z,9.23
2018-08-23T01:38:56.322Z,10.10
2018-08-23T01:41:05.326Z,9.03
2018-08-23T01:43:08.898Z,8.90
2018-08-23T01:45:12.436Z,9.43
2018-08-23T01:47:15.960Z,9.93
2018-08-23T01:49:19.447Z,9.57
2018-08-23T01:51:23.025Z,9.30
2018-08-23T01:53:30.939Z,8.47
2018-08-23T01:55:34.451Z,9.47
2018-08-23T01:57:37.953Z,9.20
2018-08-23T01:59:41.509Z,8.23
2018-08-23T02:01:45.076Z,8.47
2018-08-23T02:03:48.635Z,9.23
2018-08-23T02:05:52.136Z,9.37
2018-08-23T02:07:55.657Z,9.07
2018-08-23T02:09:59.220Z,8.67
2018-08-23T02:12:02.751Z,8.70
2018-08-23T02:14:06.371Z,8.50
2018-08-23T02:16:10.003Z,8.47
2018-08-23T02:18:13.566Z,8.30
2018-08-23T02:20:17.157Z,8.43
2018-08-23T02:22:20.642Z,8.20
2018-08-23T02:24:27.737Z,8.10
2018-08-23T02:26:31.235Z,8.10
2018-08-23T02:28:34.747Z,9.20
2018-08-23T02:30:50.232Z,7.83
2018-08-23T02:32:53.844Z,7.93
2018-08-23T02:35:06.231Z,8.57
2018-08-23T02:37:11.409Z,8.33
2018-08-23T02:39:14.955Z,8.13
2018-08-23T02:41:18.563Z,7.67
2018-08-23T02:43:22.121Z,8.10
2018-08-23T02:45:31.875Z,7.67
2018-08-23T02:47:35.364Z,7.67
2018-08-23T02:49:39.598Z,7.67
2018-08-23T02:51:48.471Z,7.70
2018-08-23T02:53:53.107Z,8.10
2018-08-23T02:55:57.733Z,7.63
2018-08-23T02:58:01.456Z,8.20
2018-08-23T03:00:05.077Z,7.80
2018-08-23T03:02:12.547Z,7.93
2018-08-23T03:04:17.448Z,8.70
2018-08-23T03:06:26.440Z,9.20
2018-08-23T03:08:42.396Z,8.53
2018-08-23T03:10:45.882Z,8.33
2018-08-23T03:12:49.437Z,8.50
2018-08-23T03:14:53.199Z,8.93
2018-08-23T03:17:37.863Z,8.83
2018-08-23T03:19:52.567Z,9.40
2018-08-23T03:22:00.083Z,9.80
2018-08-23T03:24:03.644Z,9.90
2018-08-23T03:26:07.151Z,9.63
2018-08-23T03:28:10.683Z,9.57
2018-08-23T03:30:15.362Z,9.40
2018-08-23T03:32:18.873Z,9.73
2018-08-23T03:34:22.548Z,9.83
2018-08-23T03:36:26.108Z,9.63
2018-08-23T03:38:29.656Z,9.40
2018-08-23T03:40:33.547Z,9.50
2018-08-23T03:42:37.058Z,9.43
2018-08-23T03:44:40.640Z,10.53
2018-08-23T03:46:52.579Z,9.53
2018-08-23T03:49:00.496Z,9.97
2018-08-23T03:51:04.148Z,9.23
2018-08-23T03:53:07.727Z,9.00
2018-08-23T03:55:11.994Z,9.00
2018-08-23T03:57:19.559Z,9.40
2018-08-23T03:59:23.128Z,8.70
2018-08-23T04:01:26.867Z,7.73
2018-08-23T04:03:30.868Z,8.53
2018-08-23T04:05:34.423Z,8.20
2018-08-23T04:07:39.165Z,8.13
2018-08-23T04:09:43.216Z,8.80
2018-08-23T04:11:46.683Z,7.67
2018-08-23T04:13:50.506Z,8.43
2018-08-23T04:15:53.986Z,8.80
2018-08-23T04:17:57.608Z,7.90
2018-08-23T04:20:01.220Z,7.83
2018-08-23T04:22:05.021Z,9.27
2018-08-23T04:24:08.582Z,8.97
2018-08-23T04:26:12.160Z,8.90
2018-08-23T04:28:15.664Z,9.00
2018-08-23T04:30:19.151Z,8.93
2018-08-23T04:32:28.099Z,8.47
2018-08-23T04:34:32.059Z,8.93
2018-08-23T04:36:38.716Z,8.83
2018-08-23T04:38:46.622Z,8.17
2018-08-23T04:40:54.928Z,8.70
2018-08-23T04:42:58.499Z,9.20
2018-08-23T04:45:23.183Z,9.30
2018-08-23T04:47:26.779Z,9.40
2018-08-23T04:49:30.344Z,9.90
2018-08-23T04:51:34.356Z,9.93
2018-08-23T04:53:37.878Z,10.07
2018-08-23T04:55:41.364Z,9.73
2018-08-23T04:57:44.883Z,9.60
2018-08-23T04:59:48.403Z,9.70
2018-08-23T05:01:51.885Z,9.20
2018-08-23T05:03:55.458Z,9.23
2018-08-23T05:05:59.053Z,8.70
2018-08-23T05:08:02.582Z,9.10
2018-08-23T05:10:06.377Z,8.40
2018-08-23T05:12:09.919Z,8.30
2018-08-23T05:14:13.559Z,8.03
2018-08-23T05:16:17.410Z,8.20
2018-08-23T05:18:20.947Z,8.80
2018-08-23T05:20:24.427Z,8.90
2018-08-23T05:22:27.922Z,8.73
2018-08-23T05:24:31.556Z,8.80
2018-08-23T05:26:35.071Z,9.10
2018-08-23T05:28:40.172Z,8.90
2018-08-23T05:30:44.639Z,9.00
2018-08-23T05:32:48.139Z,8.97
2018-08-23T05:34:51.614Z,8.83
2018-08-23T05:36:55.198Z,9.17
2018-08-23T05:38:59.288Z,9.47
2018-08-23T05:41:08.068Z,9.57
2018-08-23T05:43:12.086Z,9.67
2018-08-23T05:45:15.663Z,9.00
2018-08-23T05:47:19.220Z,9.47
2018-08-23T05:49:22.745Z,9.40
2018-08-23T05:51:26.268Z,9.03
2018-08-23T05:53:29.771Z,9.40
2018-08-23T05:55:33.337Z,9.60
2018-08-23T05:57:36.855Z,9.37
2018-08-23T05:59:40.388Z,9.40
2018-08-23T06:01:44.600Z,9.67
2018-08-23T06:03:48.107Z,10.10
2018-08-23T06:05:52.059Z,9.63
2018-08-23T06:07:55.546Z,9.37
2018-08-23T06:09:59.111Z,9.17
2018-08-23T06:12:02.732Z,9.43
2018-08-23T06:14:06.314Z,9.00
2018-08-23T06:16:09.817Z,9.73
2018-08-23T06:18:13.990Z,10.20
2018-08-23T06:20:17.495Z,10.20
2018-08-23T06:22:20.977Z,9.47
2018-08-23T06:24:28.189Z,9.70
2018-08-23T06:26:46.458Z,9.73
2018-08-23T06:28:50.064Z,10.20
2018-08-23T06:30:57.642Z,10.43
2018-08-23T06:33:03.991Z,10.00
2018-08-23T06:35:07.527Z,10.57
2018-08-23T06:37:11.057Z,10.10
2018-08-23T06:39:14.695Z,9.83
2018-08-23T06:41:18.195Z,11.43
2018-08-23T06:43:21.684Z,9.67
2018-08-23T06:45:25.235Z,10.77
2018-08-23T06:47:29.053Z,10.60
2018-08-23T06:49:32.608Z,10.33
2018-08-23T06:51:36.189Z,10.50
2018-08-23T06:53:47.504Z,10.60
2018-08-23T06:55:51.079Z,10.17
2018-08-23T06:58:00.143Z,10.90
2018-08-23T07:00:03.905Z,10.50
2018-08-23T07:02:07.530Z,10.90
2018-08-23T07:04:13.611Z,11.03
2018-08-23T07:06:17.111Z,10.53
2018-08-23T07:08:22.789Z,10.90
2018-08-23T07:10:26.330Z,11.10
2018-08-23T07:12:29.815Z,11.20
2018-08-23T07:14:34.802Z,11.40
2018-08-23T07:16:38.423Z,10.70
2018-08-23T07:18:41.948Z,9.83
2018-08-23T07:20:45.623Z,10.37
2018-08-23T07:22:49.144Z,10.97
2018-08-23T07:24:54.283Z,10.93
2018-08-23T07:26:57.775Z,11.13
2018-08-23T07:29:01.285Z,10.87
2018-08-23T07:31:04.875Z,12.07
2018-08-23T07:33:08.453Z,10.97
2018-08-23T07:35:14.708Z,12.33
2018-08-23T07:37:19.544Z,12.47
2018-08-23T07:39:23.190Z,12.37
2018-08-23T07:41:26.770Z,13.03
2018-08-23T07:43:30.273Z,12.53
2018-08-23T07:45:33.940Z,11.90
2018-08-23T07:47:40.898Z,12.23
2018-08-23T07:49:44.473Z,12.27
2018-08-23T07:51:47.943Z,11.00
2018-08-23T07:53:51.575Z,11.93
2018-08-23T07:55:55.274Z,11.87
2018-08-23T07:57:58.831Z,12.07
2018-08-23T08:00:05.756Z,12.47
2018-08-23T08:02:12.703Z,12.43
2018-08-23T08:04:16.397Z,12.67
2018-08-23T08:06:24.589Z,12.23
2018-08-23T08:08:28.084Z,11.47
2018-08-23T08:10:32.579Z,11.67
2018-08-23T08:12:41.416Z,12.30
2018-08-23T08:14:44.939Z,11.65
2018-08-23T08:16:48.407Z,11.80
2018-08-23T08:18:51.963Z,11.53
2018-08-23T08:21:02.757Z,11.43
2018-08-23T08:23:06.216Z,11.93
2018-08-23T08:25:25.200Z,9.93
2018-08-23T08:27:29.183Z,11.60
2018-08-23T08:29:38.815Z,10.88
2018-08-23T08:31:42.340Z,10.70
2018-08-23T08:33:45.868Z,10.10
2018-08-23T08:35:49.447Z,10.00
2018-08-23T08:37:53.036Z,10.32
2018-08-23T08:39:57.092Z,9.65
2018-08-23T08:42:00.715Z,9.03
2018-08-23T08:44:04.215Z,8.75
2018-08-23T08:46:07.816Z,8.48
2018-08-23T08:48:18.884Z,8.93
2018-08-23T08:50:22.580Z,8.05
2018-08-23T08:52:26.046Z,8.38
2018-08-23T08:54:29.590Z,7.92
2018-08-23T08:56:38.238Z,8.38
2018-08-23T08:58:42.603Z,8.03
2018-08-23T09:00:52.043Z,7.55
2018-08-23T09:02:55.651Z,7.87
2018-08-23T09:04:59.259Z,7.78
2018-08-23T09:07:02.763Z,8.08
2018-08-23T09:09:42.864Z,8.25
2018-08-23T09:11:46.327Z,7.87
2018-08-23T09:13:50.172Z,7.60
2018-08-23T09:15:53.690Z,7.65
2018-08-23T09:17:57.175Z,7.35
2018-08-23T09:20:08.161Z,7.80
2018-08-23T09:22:17.068Z,7.35
2018-08-23T09:24:27.927Z,7.85
2018-08-23T09:26:36.848Z,8.00
2018-08-23T09:28:40.391Z,7.28
2018-08-23T09:30:44.312Z,8.23
2018-08-23T09:32:47.835Z,8.20
2018-08-23T09:34:55.623Z,8.98
2018-08-23T09:36:59.145Z,9.63
2018-08-23T09:39:02.735Z,9.83
2018-08-23T09:41:06.259Z,9.60
2018-08-23T09:43:09.962Z,8.25
2018-08-23T09:45:16.181Z,8.38
2018-08-23T09:47:19.757Z,9.78
2018-08-23T09:49:23.793Z,10.05
2018-08-23T09:51:30.280Z,10.47
2018-08-23T09:53:33.793Z,10.00
2018-08-23T09:55:37.360Z,10.70
2018-08-23T09:57:41.323Z,9.77
2018-08-23T09:59:46.499Z,10.90
2018-08-23T10:01:55.278Z,9.47
2018-08-23T10:04:03.975Z,9.83
2018-08-23T10:06:12.967Z,9.63
2018-08-23T10:08:22.285Z,10.60
2018-08-23T10:10:30.959Z,9.97
2018-08-23T10:12:39.867Z,10.93
2018-08-23T10:14:48.627Z,11.73
2018-08-23T10:16:57.344Z,11.27
2018-08-23T10:19:07.023Z,11.80
2018-08-23T10:21:10.536Z,12.00
2018-08-23T10:23:19.738Z,12.30
2018-08-23T10:25:41.594Z,11.77
2018-08-23T10:27:45.155Z,12.20
2018-08-23T10:29:48.643Z,12.73
2018-08-23T10:31:52.211Z,13.13
2018-08-23T10:33:55.806Z,11.97
2018-08-23T10:35:59.310Z,12.25
2018-08-23T10:38:02.880Z,12.60
2018-08-23T10:40:06.608Z,12.93
2018-08-23T10:42:16.799Z,12.77
2018-08-23T10:44:20.498Z,12.93
2018-08-23T10:46:24.038Z,13.07
2018-08-23T10:48:27.515Z,12.47
2018-08-23T10:50:31.071Z,13.63
2018-08-23T10:52:34.663Z,12.10
2018-08-23T10:54:38.216Z,11.87
2018-08-23T10:56:41.837Z,13.50
2018-08-23T10:58:45.404Z,13.17
2018-08-23T11:00:48.923Z,13.57
2018-08-23T11:02:52.434Z,13.47
2018-08-23T11:04:55.937Z,13.33
2018-08-23T11:06:59.438Z,12.67
2018-08-23T11:09:08.302Z,14.77
2018-08-23T11:11:17.136Z,12.90
2018-08-23T11:13:26.143Z,13.43
2018-08-23T11:15:29.643Z,13.50
2018-08-23T11:17:38.644Z,13.17
2018-08-23T11:19:47.428Z,14.20
2018-08-23T11:21:50.955Z,13.53
2018-08-23T11:23:54.474Z,14.63
2018-08-23T11:25:57.979Z,13.80
2018-08-23T11:28:05.812Z,14.17
2018-08-23T11:30:09.339Z,15.17
2018-08-23T11:32:12.857Z,14.30
2018-08-23T11:34:16.379Z,14.50
2018-08-23T11:36:19.888Z,14.33
2018-08-23T11:38:23.401Z,14.93
2018-08-23T11:40:26.935Z,13.93
2018-08-23T11:42:30.521Z,16.03
2018-08-23T11:44:34.065Z,15.93
2018-08-23T11:46:37.635Z,16.90
2018-08-23T11:48:42.120Z,15.67
2018-08-23T11:50:45.661Z,15.47
2018-08-23T11:52:49.246Z,13.90
2018-08-23T11:54:52.918Z,14.10
2018-08-23T11:56:56.496Z,13.70
2018-08-23T11:59:00.057Z,14.97
2018-08-23T12:01:08.827Z,15.00
2018-08-23T12:03:12.479Z,15.43
2018-08-23T12:05:17.139Z,14.20
2018-08-23T12:07:20.680Z,13.37
2018-08-23T12:09:28.551Z,12.60
2018-08-23T12:11:32.054Z,12.33
2018-08-23T12:13:35.648Z,12.40
2018-08-23T12:15:39.164Z,10.87
2018-08-23T12:17:42.640Z,11.08
2018-08-23T12:19:46.232Z,11.83
2018-08-23T12:21:49.748Z,11.60
2018-08-23T12:23:53.352Z,11.95
2018-08-23T12:25:57.059Z,12.82
2018-08-23T12:28:07.471Z,12.47
2018-08-23T12:30:11.045Z,11.70
2018-08-23T12:32:14.617Z,8.85
2018-08-23T12:34:30.029Z,8.45
2018-08-23T12:36:39.058Z,8.40
2018-08-23T12:38:48.066Z,8.68
2018-08-23T12:40:56.951Z,8.58
2018-08-23T12:43:00.840Z,8.48
2018-08-23T12:45:04.516Z,7.62
2018-08-23T12:47:07.991Z,8.13
2018-08-23T12:49:11.537Z,7.53
2018-08-23T12:51:15.101Z,6.20
2018-08-23T12:53:18.658Z,7.50
2018-08-23T12:55:22.194Z,8.45
2018-08-23T12:57:25.899Z,8.93
2018-08-23T12:59:29.448Z,9.80
2018-08-23T13:01:32.953Z,9.10
2018-08-23T13:03:36.457Z,9.93
2018-08-23T13:05:40.128Z,9.15
2018-08-23T13:07:43.647Z,8.40
2018-08-23T13:09:47.252Z,7.40
2018-08-23T13:11:50.791Z,7.20
2018-08-23T13:13:54.432Z,6.67
2018-08-23T13:15:57.949Z,7.28
2018-08-23T13:18:01.738Z,6.60
2018-08-23T13:20:05.315Z,6.62
2018-08-23T13:22:08.815Z,6.60
2018-08-23T13:24:12.328Z,7.92
2018-08-23T13:26:15.887Z,6.60
2018-08-23T13:28:19.414Z,7.55
2018-08-23T13:30:22.955Z,6.80
2018-08-23T13:32:26.585Z,7.10
2018-08-23T13:34:30.103Z,7.00
2018-08-23T13:36:33.656Z,7.28
2018-08-23T13:38:37.171Z,6.65
2018-08-23T13:40:40.692Z,7.12
2018-08-23T13:42:44.405Z,6.83
2018-08-23T13:44:48.176Z,8.45
2018-08-23T13:46:51.748Z,7.17
2018-08-23T13:48:55.309Z,7.67
2018-08-23T13:50:58.914Z,7.03
2018-08-23T13:53:02.488Z,7.50
2018-08-23T13:55:06.061Z,8.53
2018-08-23T13:57:09.670Z,11.73
2018-08-23T13:59:13.240Z,7.20
2018-08-23T14:01:16.741Z,7.75
2018-08-23T14:03:20.231Z,7.87
2018-08-23T14:05:23.768Z,8.10
2018-08-23T14:07:27.269Z,9.58
2018-08-23T14:09:30.811Z,9.70
2018-08-23T14:11:34.332Z,10.25
2018-08-23T14:13:37.851Z,8.20
2018-08-23T14:15:46.574Z,8.65
2018-08-23T14:17:50.118Z,7.45
2018-08-23T14:19:53.949Z,6.80
2018-08-23T14:21:57.556Z,6.55
2018-08-23T14:24:01.061Z,7.55
2018-08-23T14:26:05.384Z,8.30
2018-08-23T14:28:08.855Z,7.90
2018-08-23T14:30:12.372Z,8.60
2018-08-23T14:32:15.940Z,7.15
2018-08-23T14:34:19.451Z,6.45
2018-08-23T14:36:22.961Z,6.45
2018-08-23T14:38:26.505Z,6.62
2018-08-23T14:40:30.181Z,6.60
2018-08-23T14:42:33.695Z,6.22
2018-08-23T14:44:37.258Z,6.70
2018-08-23T14:46:46.086Z,6.42
2018-08-23T14:48:49.783Z,6.53
2018-08-23T14:50:54.305Z,6.33
2018-08-23T14:52:57.943Z,6.55
2018-08-23T14:55:01.638Z,7.35
2018-08-23T14:57:10.650Z,6.53
2018-08-23T14:59:14.219Z,6.60
2018-08-23T15:01:17.767Z,6.70
2018-08-23T15:03:21.219Z,6.30
2018-08-23T15:05:24.779Z,6.90
2018-08-23T15:07:28.414Z,6.50
2018-08-23T15:09:31.938Z,7.08
2018-08-23T15:11:35.485Z,6.67
2018-08-23T15:13:39.035Z,6.90
2018-08-23T15:15:49.692Z,7.05
2018-08-23T15:17:53.179Z,7.50
2018-08-23T15:19:56.688Z,7.55
2018-08-23T15:22:00.288Z,7.08
2018-08-23T15:24:03.877Z,5.62
2018-08-23T15:26:07.487Z,5.42
2018-08-23T15:28:10.973Z,5.15
2018-08-23T15:30:14.523Z,4.78
2018-08-23T15:32:17.998Z,5.10
2018-08-23T15:34:21.488Z,6.62
2018-08-23T15:36:25.059Z,5.75
2018-08-23T15:38:28.602Z,4.55
2018-08-23T15:40:32.180Z,4.22
2018-08-23T15:42:35.676Z,3.92
2018-08-23T15:44:39.267Z,3.80
2018-08-23T15:46:42.827Z,4.00
2018-08-23T15:48:46.568Z,4.00
2018-08-23T15:50:50.224Z,4.05
2018-08-23T15:52:54.791Z,3.55
2018-08-23T15:54:58.436Z,3.60
2018-08-23T15:57:01.859Z,3.35
2018-08-23T15:59:05.483Z,3.22
2018-08-23T16:01:09.153Z,2.92
2018-08-23T16:03:12.687Z,2.77
2018-08-23T16:05:16.288Z,3.30
2018-08-23T16:07:19.780Z,3.25
2018-08-23T16:09:23.379Z,3.33
2018-08-23T16:11:27.307Z,3.25
2018-08-23T16:13:30.942Z,2.98
2018-08-23T16:15:34.626Z,3.17
2018-08-23T16:17:43.470Z,3.33
2018-08-23T16:19:52.466Z,3.30
2018-08-23T16:21:56.534Z,3.20
2018-08-23T16:24:00.131Z,3.30
2018-08-23T16:26:03.643Z,3.73
2018-08-23T16:28:07.174Z,3.52
2018-08-23T16:30:10.715Z,3.40
2018-08-23T16:32:18.510Z,3.10
2018-08-23T16:34:22.087Z,3.37
2018-08-23T16:36:25.820Z,3.97
2018-08-23T16:38:29.443Z,3.75
2018-08-23T16:40:33.315Z,3.87
2018-08-23T16:42:36.823Z,3.00
2018-08-23T16:44:40.417Z,3.23
2018-08-23T16:46:43.932Z,3.80
2018-08-23T16:48:47.425Z,3.93
2018-08-23T16:50:50.925Z,4.20
2018-08-23T16:52:54.566Z,3.47
2018-08-23T16:54:58.062Z,3.53
2018-08-23T16:57:01.611Z,3.60
2018-08-23T16:59:05.284Z,3.33
2018-08-23T17:01:08.776Z,3.50
2018-08-23T17:03:12.375Z,3.63
2018-08-23T17:05:15.910Z,3.80
2018-08-23T17:07:19.638Z,3.77
2018-08-23T17:09:23.179Z,4.37
2018-08-23T17:11:26.692Z,3.80
2018-08-23T17:13:35.383Z,3.90
2018-08-23T17:15:44.447Z,4.37
2018-08-23T17:17:53.303Z,4.07
2018-08-23T17:19:57.152Z,4.10
2018-08-23T17:22:00.688Z,3.97
2018-08-23T17:24:04.264Z,4.67
2018-08-23T17:26:07.779Z,4.37
2018-08-23T17:28:11.339Z,4.40
2018-08-23T17:30:14.875Z,4.73
2018-08-23T17:32:18.409Z,4.87
2018-08-23T17:34:21.998Z,4.17
2018-08-23T17:36:25.608Z,4.37
2018-08-23T17:38:30.198Z,4.27
2018-08-23T17:40:34.418Z,4.40
2018-08-23T17:42:43.306Z,4.67
2018-08-23T17:44:46.917Z,4.07
2018-08-23T17:46:50.679Z,4.20
2018-08-23T17:48:54.207Z,4.67
2018-08-23T17:50:57.812Z,4.73
2018-08-23T17:53:01.428Z,5.00
2018-08-23T17:55:04.964Z,4.77
2018-08-23T17:57:08.573Z,5.13
2018-08-23T17:59:12.172Z,4.87
2018-08-23T18:01:15.654Z,5.13
2018-08-23T18:03:19.251Z,5.43
2018-08-23T18:05:22.785Z,5.37
2018-08-23T18:07:26.329Z,5.00
2018-08-23T18:09:29.833Z,5.30
2018-08-23T18:11:33.447Z,5.57
2018-08-23T18:13:36.983Z,5.10
2018-08-23T18:15:45.617Z,5.23
2018-08-23T18:17:49.289Z,5.50
2018-08-23T18:19:53.315Z,4.53
2018-08-23T18:21:56.883Z,5.10
2018-08-23T18:24:00.419Z,5.70
2018-08-23T18:26:03.947Z,5.10
2018-08-23T18:28:07.599Z,6.10
2018-08-23T18:30:11.120Z,5.73
2018-08-23T18:32:14.651Z,5.40
2018-08-23T18:34:18.183Z,5.80
2018-08-23T18:36:21.739Z,5.67
2018-08-23T18:38:25.431Z,5.67
2018-08-23T18:40:29.009Z,6.23
2018-08-23T18:42:32.553Z,5.20
2018-08-23T18:44:36.098Z,6.53
2018-08-23T18:46:39.593Z,5.30
2018-08-23T18:48:43.205Z,5.70
2018-08-23T18:50:46.756Z,5.60
2018-08-23T18:52:50.249Z,5.83
2018-08-23T18:54:53.855Z,5.80
2018-08-23T18:56:57.400Z,5.43
2018-08-23T18:59:00.922Z,5.83
2018-08-23T19:01:04.459Z,5.40
2018-08-23T19:03:08.133Z,5.67
2018-08-23T19:05:11.652Z,6.17
2018-08-23T19:07:20.300Z,6.23
2018-08-23T19:09:23.946Z,6.00
2018-08-23T19:11:27.707Z,6.80
2018-08-23T19:13:31.322Z,6.53
2018-08-23T19:15:40.054Z,6.80
2018-08-23T19:17:44.238Z,7.17
2018-08-23T19:19:47.788Z,6.80
2018-08-23T19:21:51.396Z,7.00
2018-08-23T19:23:54.927Z,7.07
2018-08-23T19:25:58.604Z,7.50
2018-08-23T19:28:02.114Z,7.17
2018-08-23T19:30:06.827Z,6.73
2018-08-23T19:32:10.339Z,7.77
2018-08-23T19:34:13.885Z,6.57
2018-08-23T19:36:17.493Z,7.97
2018-08-23T19:38:21.265Z,7.27
2018-08-23T19:40:28.157Z,7.57
2018-08-23T19:42:31.701Z,7.37
2018-08-23T19:44:39.471Z,7.90
2018-08-23T19:46:48.454Z,7.33
2018-08-23T19:48:57.374Z,7.00
2018-08-23T19:51:00.853Z,7.53
2018-08-23T19:53:04.502Z,7.10
2018-08-23T19:55:09.579Z,7.00
2018-08-23T19:57:13.396Z,6.90
2018-08-23T19:59:17.014Z,7.03
2018-08-23T20:01:20.576Z,8.20
2018-08-23T20:03:24.106Z,8.00
2018-08-23T20:05:27.692Z,8.27
2018-08-23T20:07:31.185Z,8.43
2018-08-23T20:09:34.735Z,8.13
2018-08-23T20:11:38.231Z,7.53
2018-08-23T20:13:41.777Z,8.33
2018-08-23T20:15:45.288Z,7.70
2018-08-23T20:17:48.923Z,7.60
2018-08-23T20:19:52.548Z,7.23
2018-08-23T20:21:56.324Z,7.70
2018-08-23T20:23:59.911Z,7.23
2018-08-23T20:26:03.416Z,6.80
2018-08-23T20:28:06.980Z,7.27
2018-08-23T20:30:10.562Z,7.97
2018-08-23T20:32:14.312Z,7.57
2018-08-23T20:34:17.819Z,7.67
2018-08-23T20:36:21.387Z,7.60
2018-08-23T20:38:24.899Z,7.50
2018-08-23T20:40:28.508Z,7.90
2018-08-23T20:42:32.008Z,7.93
2018-08-23T20:44:35.573Z,8.50
2018-08-23T20:46:39.804Z,7.17
2018-08-23T20:48:43.349Z,8.47
2018-08-23T20:50:46.869Z,8.83
2018-08-23T20:52:50.665Z,9.93
2018-08-23T20:54:54.080Z,8.73
2018-08-23T20:56:57.584Z,9.00
2018-08-23T20:59:01.311Z,9.13
2018-08-23T21:01:04.835Z,8.83
2018-08-23T21:03:08.311Z,8.90
2018-08-23T21:05:11.859Z,9.40
2018-08-23T21:07:15.379Z,9.20
2018-08-23T21:09:18.990Z,8.50
2018-08-23T21:11:22.616Z,8.80
2018-08-23T21:13:26.383Z,8.23
2018-08-23T21:15:38.180Z,8.33
2018-08-23T21:17:41.716Z,9.20
2018-08-23T21:19:45.372Z,8.33
2018-08-23T21:21:48.915Z,8.40
2018-08-23T21:23:52.493Z,8.27
2018-08-23T21:25:55.991Z,8.33
2018-08-23T21:27:59.576Z,9.90
2018-08-23T21:30:03.135Z,7.70
2018-08-23T21:32:06.927Z,8.93
2018-08-23T21:34:10.522Z,8.43
2018-08-23T21:36:20.706Z,8.37
2018-08-23T21:38:24.227Z,8.07
2018-08-23T21:40:27.839Z,8.20
2018-08-23T21:42:31.462Z,7.43
2018-08-23T21:44:35.052Z,7.50
2018-08-23T21:46:38.541Z,7.90
2018-08-23T21:48:42.141Z,8.23
2018-08-23T21:50:45.671Z,7.73
2018-08-23T21:52:49.261Z,8.47
2018-08-23T21:54:52.793Z,8.30
2018-08-23T21:56:56.256Z,8.07
2018-08-23T21:58:59.756Z,8.20
2018-08-23T22:01:06.938Z,7.67
2018-08-23T22:03:11.124Z,7.50
2018-08-23T22:05:14.664Z,7.77
2018-08-23T22:07:18.188Z,7.00
2018-08-23T22:09:21.761Z,7.10
2018-08-23T22:11:25.263Z,7.60
2018-08-23T22:13:28.971Z,7.37
2018-08-23T22:15:32.741Z,8.53
2018-08-23T22:17:36.223Z,8.37
2018-08-23T22:19:39.790Z,8.60
2018-08-23T22:21:43.379Z,7.60
2018-08-23T22:23:47.015Z,7.70
2018-08-23T22:25:50.642Z,7.30
2018-08-23T22:27:54.216Z,7.70
2018-08-23T22:29:57.722Z,7.57
2018-08-23T22:32:01.697Z,7.57
2018-08-23T22:34:05.313Z,8.00
2018-08-23T22:36:08.930Z,7.17
2018-08-23T22:38:12.576Z,7.83
2018-08-23T22:40:16.256Z,7.60
2018-08-23T22:42:19.875Z,7.10
2018-08-23T22:44:23.563Z,7.03
2018-08-23T22:46:27.047Z,6.60
2018-08-23T22:48:30.556Z,7.03
2018-08-23T22:50:34.116Z,6.97
2018-08-23T22:52:37.594Z,6.27
2018-08-23T22:54:41.191Z,6.80
2018-08-23T22:56:44.826Z,6.50
2018-08-23T22:58:48.429Z,6.27
2018-08-23T23:00:52.094Z,7.77
2018-08-23T23:02:55.652Z,7.37
2018-08-23T23:04:59.179Z,7.93
2018-08-23T23:07:07.283Z,8.23
2018-08-23T23:09:12.745Z,7.40
2018-08-23T23:11:16.337Z,8.37
2018-08-23T23:13:19.826Z,7.50
2018-08-23T23:15:25.355Z,7.67
2018-08-23T23:17:28.852Z,7.07
2018-08-23T23:19:32.411Z,7.27
2018-08-23T23:21:35.973Z,7.80
2018-08-23T23:23:39.471Z,6.80
2018-08-23T23:25:42.959Z,7.73
2018-08-23T23:27:46.556Z,6.77
2018-08-23T23:29:50.076Z,7.80
2018-08-23T23:31:53.633Z,6.70
2018-08-23T23:33:57.144Z,7.43
2018-08-23T23:36:00.695Z,7.27
2018-08-23T23:38:04.420Z,7.57
2018-08-23T23:40:08.187Z,8.50
2018-08-23T23:42:11.684Z,7.83
2018-08-23T23:44:15.183Z,8.60
2018-08-23T23:46:18.965Z,9.30
2018-08-23T23:48:22.512Z,10.07
2018-08-23T23:50:26.027Z,9.60
2018-08-23T23:52:29.601Z,8.90
2018-08-23T23:54:33.113Z,9.00
2018-08-23T23:56:36.779Z,8.97
2018-08-23T23:58:40.311Z,8.97
